• Join FlightAware (Why Join?)
  • Login
  • US Flag 
 
04:54AM EST


 

Airport Tracker/Info


-or-


 

Live Flight TrackerFlight Track Log ✈ SWA534 ✈ 21-Aug-2013 ✈ KTUS - KLAX

Flight Track Log - Related Links

Times and Time Zones

All times are in EDT time to prevent confusion due to time zone crossing. See the SWA534 flight status page for this flight to view local times or setup timezone preferences in your user account.

Time Position Orientation Groundspeed Altitude Reporting Facility
EDT Latitude Longitude Course Direction KTS MPH feet Rate Location/Type
03:24PM 32.0981 -110.9186 180° South 180 207 3,300  Level Albuquerque Center
03:25PM 32.0439 -110.9181 180° South 239 275 5,800 1,980 Climbing Albuquerque Center
03:26PM 32.0736 -110.9906 296° West 268 308 7,700 2,340 Climbing Albuquerque Center
03:27PM 32.1189 -111.0733 303° West 278 320 10,600 2,160 Climbing Albuquerque Center
03:28PM 32.1706 -111.1678 303° West 332 382 12,600 2,580 Climbing Albuquerque Center
03:29PM 32.2347 -111.2889 302° West 359 413 16,000 2,760 Climbing Albuquerque Center
03:30PM 32.2889 -111.3928 302° West 368 423 18,300 2,220 Climbing Albuquerque Center
03:31PM 32.3461 -111.4994 302° West 379 436 20,600 2,280 Climbing Albuquerque Center
03:32PM 32.4044 -111.6117 302° West 395 455 23,000 1,980 Climbing Albuquerque Center
03:33PM 32.4628 -111.7222 302° West 397 457 24,800 1,620 Climbing Albuquerque Center
03:34PM 32.5242 -111.8378 302° West 406 467 26,400 1,740 Climbing Albuquerque Center
03:35PM 32.5872 -111.9586 302° West 422 486 28,400 1,560 Climbing Albuquerque Center
03:36PM 32.6489 -112.0769 302° West 423 487 29,600 1,140 Climbing Albuquerque Center
03:37PM 32.7278 -112.2286 302° West 442 509 30,800 1,200 Climbing Albuquerque Center
03:38PM 32.7850 -112.3397 302° West 454 522 32,200 1,860 Climbing Albuquerque Center
03:39PM 32.8619 -112.4897 301° West 449 517 34,700 1,800 Climbing Albuquerque Center
03:40PM 32.9236 -112.6097 301° West 436 502 36,000 600 Climbing Albuquerque Center
03:41PM 32.9947 -112.7233 307° West 438 504 36,000  Level Albuquerque Center
03:42PM 33.0747 -112.8308 312° West 437 503 36,000  Level Albuquerque Center
03:44PM 33.1569 -112.9389 312° West 439 505 36,000  Level Albuquerque Center
03:45PM 33.2386 -113.0475 312° West 441 507 36,000  Level Albuquerque Center
03:46PM 33.3358 -113.1786 312° West 441 507 36,000  Level Albuquerque Center
03:47PM 33.4178 -113.2861 312° West 440 506 36,000  Level Albuquerque Center
03:48PM 33.4986 -113.3958 311° West 441 507 36,000  Level Albuquerque Center
03:49PM 33.5814 -113.5069 312° West 445 512 36,000  Level Albuquerque Center
03:50PM 33.6667 -113.6233 311° West 452 520 36,000  Level Albuquerque Center
03:51PM 33.7506 -113.7353 312° West 452 520 36,000  Level Albuquerque Center
03:52PM 33.8219 -113.8597 305° West 452 520 36,000  Level Albuquerque Center
03:53PM 33.8500 -114.0028 283° West 440 506 36,000  Level Albuquerque Center
03:54PM 33.8764 -114.1747 281° West 438 504 36,000  Level Albuquerque Center
03:55PM 33.8953 -114.2906 281° West 440 506 36,000  Level Los Angeles Center
03:56PM 33.9167 -114.4344 280° West 440 506 36,000  Level Los Angeles Center
03:57PM 33.9389 -114.5772 281° West 437 503 36,000  Level Los Angeles Center
03:58PM 33.9608 -114.7219 280° West 441 507 36,000  Level Los Angeles Center
03:59PM 33.9858 -114.8947 280° West 438 504 36,000  Level Los Angeles Center
04:00PM 34.0078 -115.0386 280° West 440 506 36,000  Level Los Angeles Center
04:01PM 34.0292 -115.1814 280° West 436 502 36,000  Level Los Angeles Center
04:02PM 34.0492 -115.3250 280° West 435 501 36,000  Level Los Angeles Center
04:03PM 34.0703 -115.4689 280° West 439 505 36,000  Level Los Angeles Center
04:04PM 34.0947 -115.6417 280° West 438 504 36,000  Level Los Angeles Center
04:05PM 34.1094 -115.7853 277° West 435 501 36,000  Level Los Angeles Center
04:06PM 34.0900 -115.9231 260° West 423 487 36,000  Level Los Angeles Center
04:07PM 34.0694 -116.0611 260° West 420 483 36,000 -960 Level Los Angeles Center
04:08PM 34.0486 -116.1994 260° West 421 484 34,100 -2,760 Descending Los Angeles Center
04:09PM 34.0239 -116.3647 260° West 420 483 30,400 -2,700 Descending Los Angeles Center
04:10PM 34.0033 -116.5075 260° West 433 498 28,600 -2,580 Descending Los Angeles Center
04:11PM 33.9908 -116.6600 264° West 455 524 25,100 -3,060 Descending Los Angeles Center
04:12PM 33.9800 -116.8028 265° West 434 499 22,300 -2,700 Descending Los Angeles Center
04:13PM 33.9689 -116.9392 264° West 415 478 19,600 -2,460 Descending Los Angeles Center
04:14PM 33.9581 -117.0700 264° West 398 458 17,200 -1,260 Descending Los Angeles Center
04:15PM 33.9461 -117.2047 264° West 363 418 17,000 -300 Descending Los Angeles Center
04:16PM 33.9361 -117.3250 264° West 361 415 16,600 -1,260 Descending Los Angeles Center
04:17PM 33.9550 -117.4411 281° West 357 411 14,400 -2,280 Descending Los Angeles Center
04:18PM 34.0019 -117.5706 294° West 352 405 11,900 -2,040 Descending Los Angeles Center
04:19PM 34.0253 -117.6764 285° West 337 388 10,300 -1,380 Descending Los Angeles Center
04:21PM 34.0147 -117.7747 263° West 302 348 9,100 -1,380 Descending Los Angeles Center
04:22PM 34.0000 -117.9000 262° West 285 328 7,300 -1,380 Descending Southern California TRACON
04:23PM 34.0000 -117.9833 270° West 266 306 6,200 -1,020 Descending Southern California TRACON
04:24PM 33.9833 -118.0667 256° West 246 283 5,300 -960 Descending Southern California TRACON
04:25PM 33.9786 -118.1389 266° West 239 275 4,400 -1,080 Descending Los Angeles Center
04:26PM 33.9725 -118.2036 264° West 208 239 3,200 -1,020 Descending Los Angeles Center
04:27PM 33.9664 -118.2606 263° West 186 214 2,400 -840 Descending Los Angeles Center
04:28PM 33.9619 -118.3144 264° West 173 199 1,500 -840 Descending Los Angeles Center
04:29PM 33.9569 -118.3692 264° West 151 174 700 -660 Descending Los Angeles Center
04:30PM 33.9522 -118.4011 260° West 135 155 200 -480 Descending Los Angeles Center
04:32PM 33.9425 -118.4081 270° West  Level Estimated
04:39PM 33.9425 -118.4081 270° West  Level Estimated